createdAt,value
2022-12-15T00:02:20.168Z,1.90
2022-12-15T00:05:27.185Z,1.90
2022-12-15T00:08:33.113Z,1.90
2022-12-15T00:11:40.344Z,1.90
2022-12-15T00:14:46.406Z,1.90
2022-12-15T00:17:52.498Z,1.80
2022-12-15T00:20:58.376Z,1.80
2022-12-15T00:24:04.613Z,1.80
2022-12-15T00:27:11.904Z,1.80
2022-12-15T00:30:18.165Z,1.80
2022-12-15T00:33:28.622Z,1.80
2022-12-15T00:36:34.948Z,1.80
2022-12-15T00:39:23.402Z,1.80
2022-12-15T00:42:13.216Z,1.80
2022-12-15T00:45:02.044Z,1.80
2022-12-15T00:47:49.506Z,1.80
2022-12-15T00:50:53.176Z,1.70
2022-12-15T00:53:59.536Z,1.70
2022-12-15T00:57:05.731Z,1.70
2022-12-15T01:00:12.993Z,1.70
2022-12-15T01:03:19.424Z,1.70
2022-12-15T01:06:26.170Z,1.60
2022-12-15T01:09:32.244Z,1.60
2022-12-15T01:12:38.267Z,1.60
2022-12-15T01:15:45.927Z,1.60
2022-12-15T01:18:52.381Z,1.60
2022-12-15T01:21:42.176Z,1.60
2022-12-15T01:24:30.597Z,1.70
2022-12-15T01:27:19.136Z,1.70
2022-12-15T01:30:10.640Z,1.70
2022-12-15T01:33:00.415Z,1.70
2022-12-15T01:35:57.837Z,1.70
2022-12-15T01:38:52.291Z,1.70
2022-12-15T01:41:41.419Z,1.70
2022-12-15T01:44:29.803Z,1.70
2022-12-15T01:47:18.281Z,1.70
2022-12-15T01:50:09.953Z,1.70
2022-12-15T01:52:58.400Z,1.70
2022-12-15T01:55:49.616Z,1.60
2022-12-15T01:58:38.524Z,1.70
2022-12-15T02:01:26.979Z,1.70
2022-12-15T02:04:15.423Z,1.60
2022-12-15T02:07:05.217Z,1.70
2022-12-15T02:09:55.150Z,1.70
2022-12-15T02:12:46.603Z,1.70
2022-12-15T02:15:37.369Z,1.70
2022-12-15T02:18:29.179Z,1.70
2022-12-15T02:21:18.961Z,1.70
2022-12-15T02:24:41.079Z,1.70
2022-12-15T02:27:51.583Z,1.70
2022-12-15T02:30:46.600Z,1.70
2022-12-15T02:33:35.103Z,1.70
2022-12-15T02:36:26.786Z,1.70
2022-12-15T02:39:15.254Z,1.80
2022-12-15T02:42:03.690Z,1.80
2022-12-15T02:44:53.831Z,1.80
2022-12-15T02:47:46.749Z,1.80
2022-12-15T02:50:47.457Z,1.80
2022-12-15T02:53:56.231Z,1.80
2022-12-15T02:56:47.126Z,1.90
2022-12-15T02:59:40.229Z,1.90
2022-12-15T03:02:30.858Z,1.90
2022-12-15T03:05:21.466Z,1.90
2022-12-15T03:08:10.127Z,1.90
2022-12-15T03:10:58.608Z,1.90
2022-12-15T03:13:47.194Z,1.90
2022-12-15T03:16:38.435Z,1.90
2022-12-15T03:19:27.321Z,1.90
2022-12-15T03:22:17.100Z,1.80
2022-12-15T03:25:06.736Z,1.80
2022-12-15T03:27:55.177Z,1.80
2022-12-15T03:30:43.584Z,1.80
2022-12-15T03:33:34.676Z,1.70
2022-12-15T03:36:23.589Z,1.60
2022-12-15T03:39:13.427Z,1.60
2022-12-15T03:42:01.925Z,1.50
2022-12-15T03:44:50.447Z,1.40
2022-12-15T03:47:42.349Z,1.30
2022-12-15T03:50:30.845Z,1.30
2022-12-15T03:53:19.293Z,1.20
2022-12-15T03:56:09.638Z,1.20
2022-12-15T03:58:58.123Z,1.10
2022-12-15T04:01:48.204Z,1.10
2022-12-15T04:04:36.845Z,1.10
2022-12-15T04:07:25.268Z,1.00
2022-12-15T04:10:13.868Z,1.00
2022-12-15T04:13:04.905Z,1.00
2022-12-15T04:15:53.331Z,0.90
2022-12-15T04:18:41.752Z,0.90
2022-12-15T04:21:29.171Z,0.80
2022-12-15T04:24:35.269Z,0.70
2022-12-15T04:27:41.436Z,0.60
2022-12-15T04:30:49.002Z,0.50
2022-12-15T04:33:55.572Z,0.50
2022-12-15T04:37:02.832Z,0.40
2022-12-15T04:40:09.930Z,0.40
2022-12-15T04:43:16.227Z,0.40
2022-12-15T04:46:23.984Z,0.30
2022-12-15T04:49:30.102Z,0.30
2022-12-15T04:52:36.014Z,0.30
2022-12-15T04:55:41.826Z,0.30
2022-12-15T04:58:48.010Z,0.30
2022-12-15T05:01:55.603Z,0.40
2022-12-15T05:05:01.870Z,0.40
2022-12-15T05:08:07.809Z,0.50
2022-12-15T05:11:13.688Z,0.50
2022-12-15T05:14:19.992Z,0.60
2022-12-15T05:17:27.398Z,0.60
2022-12-15T05:20:33.411Z,0.70
2022-12-15T05:23:39.391Z,0.80
2022-12-15T05:26:52.114Z,0.80
2022-12-15T05:29:58.873Z,0.90
2022-12-15T05:32:49.895Z,0.90
2022-12-15T05:35:38.487Z,0.90
2022-12-15T05:38:26.924Z,0.90
2022-12-15T05:41:15.360Z,0.90
2022-12-15T05:44:03.874Z,0.90
2022-12-15T05:46:52.421Z,0.90
2022-12-15T05:49:42.411Z,0.90
2022-12-15T05:52:30.913Z,0.90
2022-12-15T05:55:19.654Z,0.90
2022-12-15T05:58:08.040Z,0.90
2022-12-15T06:00:56.874Z,0.90
2022-12-15T06:03:45.524Z,0.80
2022-12-15T06:06:35.333Z,0.80
2022-12-15T06:09:23.757Z,0.80
2022-12-15T06:12:12.235Z,0.80
2022-12-15T06:15:01.004Z,0.70
2022-12-15T06:17:49.741Z,0.70
2022-12-15T06:20:38.295Z,0.70
2022-12-15T06:23:29.649Z,0.70
2022-12-15T06:26:20.436Z,0.60
2022-12-15T06:29:10.364Z,0.60
2022-12-15T06:31:58.744Z,0.60
2022-12-15T06:34:47.117Z,0.60
2022-12-15T06:37:35.668Z,0.60
2022-12-15T06:40:25.456Z,0.50
2022-12-15T06:43:13.871Z,0.50
2022-12-15T06:46:02.910Z,0.40
2022-12-15T06:48:51.276Z,0.40
2022-12-15T06:51:39.608Z,0.30
2022-12-15T06:54:28.082Z,0.30
2022-12-15T06:57:17.810Z,0.30
2022-12-15T07:00:07.889Z,0.30
2022-12-15T07:02:56.371Z,0.30
2022-12-15T07:05:24.913Z,0.20
2022-12-15T07:07:53.497Z,0.20
2022-12-15T07:10:21.634Z,0.10
2022-12-15T07:12:51.278Z,0.10
2022-12-15T07:15:19.853Z,0.10
2022-12-15T07:17:48.084Z,0.00
2022-12-15T07:20:16.376Z,0.00
2022-12-15T07:22:44.546Z,0.00
2022-12-15T07:25:12.646Z,-0.10
2022-12-15T07:27:41.212Z,-0.10
2022-12-15T07:30:12.938Z,-0.10
2022-12-15T07:32:41.548Z,-0.10
2022-12-15T07:35:10.555Z,-0.10
2022-12-15T07:37:38.678Z,-0.10
2022-12-15T07:40:09.067Z,-0.10
2022-12-15T07:42:37.219Z,-0.10
2022-12-15T07:45:06.917Z,-0.10
2022-12-15T07:47:36.977Z,-0.10
2022-12-15T07:50:05.980Z,-0.10
2022-12-15T07:52:34.741Z,-0.10
2022-12-15T07:55:03.157Z,-0.10
2022-12-15T07:57:32.782Z,-0.10
2022-12-15T08:00:01.012Z,-0.10
2022-12-15T08:02:41.368Z,-0.10
2022-12-15T08:05:10.314Z,-0.10
2022-12-15T08:07:38.449Z,0.10
2022-12-15T08:10:07.887Z,-0.10
2022-12-15T08:12:36.084Z,-0.10
2022-12-15T08:15:04.791Z,-0.20
2022-12-15T08:17:33.195Z,-0.10
2022-12-15T08:20:09.530Z,-0.10
2022-12-15T08:22:38.147Z,-0.20
2022-12-15T08:25:07.085Z,-0.20
2022-12-15T08:27:46.267Z,-0.10
2022-12-15T08:30:19.495Z,-0.10
2022-12-15T08:32:51.906Z,-0.10
2022-12-15T08:35:54.713Z,-0.10
2022-12-15T08:38:09.842Z,-0.10
2022-12-15T08:40:38.023Z,0.00
2022-12-15T08:43:06.693Z,0.00
2022-12-15T08:45:35.278Z,0.00
2022-12-15T08:48:03.578Z,0.10
2022-12-15T08:50:33.213Z,0.10
2022-12-15T08:53:29.709Z,0.30
2022-12-15T08:55:49.567Z,0.20
2022-12-15T08:58:18.044Z,0.30
2022-12-15T09:00:46.252Z,0.30
2022-12-15T09:03:14.399Z,0.30
2022-12-15T09:05:44.034Z,0.30
2022-12-15T09:08:12.197Z,0.40
2022-12-15T09:10:42.159Z,0.40
2022-12-15T09:13:10.544Z,0.40
2022-12-15T09:16:08.471Z,0.50
2022-12-15T09:18:31.507Z,0.50
2022-12-15T09:21:03.556Z,0.70
2022-12-15T09:23:32.261Z,0.80
2022-12-15T09:26:01.596Z,0.90
2022-12-15T09:28:30.280Z,1.00
2022-12-15T09:31:03.985Z,1.20
2022-12-15T09:33:33.047Z,1.40
2022-12-15T09:36:03.538Z,1.70
2022-12-15T09:38:32.084Z,2.00
2022-12-15T09:41:07.320Z,2.40
2022-12-15T09:43:46.648Z,2.70
2022-12-15T09:46:22.049Z,3.20
2022-12-15T09:48:50.384Z,3.60
2022-12-15T09:51:19.984Z,4.00
2022-12-15T09:53:56.424Z,4.30
2022-12-15T09:56:28.616Z,4.60
2022-12-15T09:59:01.088Z,5.10
2022-12-15T10:01:33.493Z,5.40
2022-12-15T10:04:05.499Z,5.70
2022-12-15T10:06:35.982Z,5.90
2022-12-15T10:09:11.089Z,6.00
2022-12-15T10:11:50.157Z,6.10
2022-12-15T10:14:25.903Z,6.10
2022-12-15T10:17:03.962Z,6.10
2022-12-15T10:19:38.599Z,6.10
2022-12-15T10:22:12.316Z,6.10
2022-12-15T10:27:55.539Z,5.90
2022-12-15T10:30:23.866Z,5.80
2022-12-15T10:32:55.765Z,5.70
2022-12-15T10:35:25.326Z,5.70
2022-12-15T10:37:55.082Z,5.60
2022-12-15T10:40:50.820Z,5.60
2022-12-15T10:43:34.476Z,5.50
2022-12-15T10:46:08.335Z,5.50
2022-12-15T10:48:37.001Z,5.50
2022-12-15T10:51:26.027Z,5.50
2022-12-15T10:54:05.386Z,5.50
2022-12-15T10:56:34.789Z,5.60
2022-12-15T10:59:05.309Z,5.60
2022-12-15T11:01:35.524Z,5.60
2022-12-15T11:04:04.329Z,5.50
2022-12-15T11:06:34.125Z,5.50
2022-12-15T11:09:29.410Z,5.50
2022-12-15T11:12:29.503Z,5.60
2022-12-15T11:14:57.696Z,5.60
2022-12-15T11:17:25.809Z,5.60
2022-12-15T11:20:02.252Z,5.50
2022-12-15T11:22:36.637Z,5.50
2022-12-15T11:25:10.920Z,5.40
2022-12-15T11:27:39.840Z,5.40
2022-12-15T11:30:13.827Z,5.30
2022-12-15T11:32:44.026Z,5.20
2022-12-15T11:35:13.941Z,5.10
2022-12-15T11:37:43.807Z,5.00
2022-12-15T11:40:39.717Z,4.90
2022-12-15T11:43:36.757Z,4.80
2022-12-15T11:46:20.100Z,4.80
2022-12-15T11:49:01.387Z,4.70
2022-12-15T11:51:40.451Z,4.70
2022-12-15T11:54:18.189Z,4.70
2022-12-15T11:56:49.199Z,4.70
2022-12-15T11:59:39.508Z,4.80
2022-12-15T12:02:40.716Z,4.80
2022-12-15T12:05:27.849Z,4.80
2022-12-15T12:08:00.260Z,4.80
2022-12-15T12:10:32.751Z,4.80
2022-12-15T12:13:10.780Z,4.80
2022-12-15T12:15:45.027Z,4.80
2022-12-15T12:18:18.248Z,4.70
2022-12-15T12:20:49.605Z,4.60
2022-12-15T12:23:21.394Z,4.60
2022-12-15T12:26:02.779Z,4.60
2022-12-15T12:28:36.951Z,4.50
2022-12-15T12:31:05.115Z,4.40
2022-12-15T12:33:36.336Z,4.30
2022-12-15T12:36:06.987Z,4.20
2022-12-15T12:38:38.959Z,4.20
2022-12-15T12:41:10.756Z,4.10
2022-12-15T12:43:43.420Z,4.10
2022-12-15T12:46:15.061Z,4.10
2022-12-15T12:48:46.236Z,4.10
2022-12-15T12:51:27.274Z,4.10
2022-12-15T12:53:55.775Z,4.20
2022-12-15T12:56:40.743Z,4.20
2022-12-15T12:59:37.281Z,4.20
2022-12-15T13:02:42.855Z,4.30
2022-12-15T13:05:29.503Z,4.30
2022-12-15T13:08:17.209Z,4.30
2022-12-15T13:10:47.256Z,4.20
2022-12-15T13:13:21.398Z,4.20
2022-12-15T13:15:51.532Z,4.10
2022-12-15T13:18:22.344Z,4.10
2022-12-15T13:20:51.360Z,4.10
2022-12-15T13:23:43.174Z,4.10
2022-12-15T13:26:15.345Z,4.10
2022-12-15T13:28:46.984Z,4.10
2022-12-15T13:31:42.902Z,4.10
2022-12-15T13:34:20.665Z,4.10
2022-12-15T13:36:55.201Z,4.10
2022-12-15T13:39:59.181Z,4.20
2022-12-15T13:45:43.828Z,4.40
2022-12-15T13:48:38.064Z,4.50
2022-12-15T13:51:30.069Z,4.60
2022-12-15T13:54:01.622Z,4.70
2022-12-15T13:56:50.820Z,4.80
2022-12-15T13:59:38.514Z,5.00
2022-12-15T14:02:26.503Z,5.20
2022-12-15T14:05:16.125Z,5.40
2022-12-15T14:07:52.615Z,5.60
2022-12-15T14:10:24.467Z,5.80
2022-12-15T14:12:53.738Z,6.10
2022-12-15T14:15:29.200Z,6.30
2022-12-15T14:17:57.551Z,6.50
2022-12-15T14:20:30.661Z,6.70
2022-12-15T14:22:58.880Z,6.90
2022-12-15T14:25:29.305Z,7.00
2022-12-15T14:27:57.711Z,7.10
2022-12-15T14:30:29.274Z,7.20
2022-12-15T14:32:59.205Z,7.30
2022-12-15T14:35:31.585Z,7.40
2022-12-15T14:38:01.688Z,7.40
2022-12-15T14:40:29.934Z,7.40
2022-12-15T14:42:58.051Z,7.50
2022-12-15T14:45:29.171Z,7.50
2022-12-15T14:48:39.636Z,7.50
2022-12-15T14:50:48.791Z,7.40
2022-12-15T14:53:18.847Z,7.40
2022-12-15T14:55:47.399Z,7.40
2022-12-15T14:58:28.512Z,7.40
2022-12-15T15:00:57.301Z,7.30
2022-12-15T15:03:13.202Z,4.30
2022-12-15T15:03:36.854Z,7.30
2022-12-15T15:06:08.487Z,7.20
2022-12-15T15:08:42.736Z,7.00
2022-12-15T15:11:24.440Z,6.90
2022-12-15T15:13:55.988Z,6.70
2022-12-15T15:16:24.711Z,6.60
2022-12-15T15:18:54.553Z,6.40
2022-12-15T15:21:25.352Z,6.20
2022-12-15T15:24:01.210Z,6.10
2022-12-15T15:26:30.897Z,5.90
2022-12-15T15:28:59.290Z,5.80
2022-12-15T15:31:36.779Z,5.60
2022-12-15T15:34:06.869Z,5.50
2022-12-15T15:36:38.042Z,5.30
2022-12-15T15:39:11.640Z,5.20
2022-12-15T15:41:39.856Z,5.10
2022-12-15T15:44:13.123Z,4.90
2022-12-15T15:46:46.118Z,4.80
2022-12-15T15:49:16.372Z,4.70
2022-12-15T15:51:45.917Z,4.60
2022-12-15T15:54:15.846Z,4.50
2022-12-15T15:56:44.007Z,4.40
2022-12-15T15:59:13.985Z,4.40
2022-12-15T16:01:42.261Z,4.30
2022-12-15T16:04:10.550Z,4.20
2022-12-15T16:06:43.522Z,4.10
2022-12-15T16:09:16.764Z,4.00
2022-12-15T16:11:44.947Z,4.00
2022-12-15T16:14:14.127Z,3.90
2022-12-15T16:16:42.709Z,3.80
2022-12-15T16:19:11.959Z,3.80
2022-12-15T16:21:40.437Z,3.70
2022-12-15T16:24:12.289Z,3.70
2022-12-15T16:26:41.786Z,3.60
2022-12-15T16:29:14.067Z,3.50
2022-12-15T16:31:45.384Z,3.50
2022-12-15T16:34:13.964Z,3.40
2022-12-15T16:36:42.303Z,3.40
2022-12-15T16:39:26.585Z,3.40
2022-12-15T16:41:57.175Z,3.30
2022-12-15T16:44:25.815Z,3.20
2022-12-15T16:46:54.261Z,3.20
2022-12-15T16:49:22.616Z,3.20
2022-12-15T16:51:52.732Z,3.20
2022-12-15T16:54:23.258Z,3.10
2022-12-15T16:56:52.916Z,3.10
2022-12-15T16:59:39.169Z,3.10
2022-12-15T17:02:29.772Z,3.10
2022-12-15T17:04:58.164Z,3.00
2022-12-15T17:07:27.553Z,3.10
2022-12-15T17:09:55.991Z,3.10
2022-12-15T17:12:24.232Z,3.00
2022-12-15T17:14:53.690Z,3.00
2022-12-15T17:17:21.884Z,3.00
2022-12-15T17:20:28.059Z,3.00
2022-12-15T17:22:40.247Z,2.90
2022-12-15T17:25:14.563Z,2.90
2022-12-15T17:27:42.692Z,2.60
2022-12-15T17:30:15.059Z,2.80
2022-12-15T17:32:43.405Z,2.80
2022-12-15T17:35:12.181Z,2.80
2022-12-15T17:37:40.793Z,2.80
2022-12-15T17:40:17.644Z,2.80
2022-12-15T17:42:46.247Z,2.80
2022-12-15T17:45:19.199Z,2.80
2022-12-15T17:47:47.473Z,2.80
2022-12-15T17:50:15.746Z,2.80
2022-12-15T17:52:46.285Z,2.80
2022-12-15T17:55:23.701Z,2.80
2022-12-15T17:57:53.522Z,2.80
2022-12-15T18:00:25.693Z,2.80
2022-12-15T18:02:54.615Z,2.80
2022-12-15T18:05:26.087Z,2.90
2022-12-15T18:07:56.977Z,2.90
2022-12-15T18:10:29.901Z,2.90
2022-12-15T18:12:58.146Z,3.00
2022-12-15T18:15:29.010Z,3.00
2022-12-15T18:17:57.300Z,3.00
2022-12-15T18:20:25.927Z,3.00
2022-12-15T18:22:54.115Z,3.00
2022-12-15T18:25:25.866Z,3.00
2022-12-15T18:27:54.120Z,3.00
2022-12-15T18:30:23.301Z,3.00
2022-12-15T18:32:55.335Z,2.90
2022-12-15T18:35:25.558Z,2.50
2022-12-15T18:37:53.772Z,2.90
2022-12-15T18:40:25.367Z,2.80
2022-12-15T18:42:54.312Z,2.80
2022-12-15T18:45:25.874Z,3.00
2022-12-15T18:47:56.383Z,2.80
2022-12-15T18:50:25.591Z,2.80
2022-12-15T18:52:59.532Z,2.80
2022-12-15T18:55:29.838Z,2.90
2022-12-15T18:57:58.774Z,2.90
2022-12-15T19:00:28.512Z,3.00
2022-12-15T19:02:59.972Z,3.00
2022-12-15T19:05:29.223Z,3.10
2022-12-15T19:08:00.267Z,3.10
2022-12-15T19:10:28.849Z,3.20
2022-12-15T19:12:58.812Z,3.30
2022-12-15T19:15:27.318Z,3.40
2022-12-15T19:18:14.515Z,3.40
2022-12-15T19:21:00.473Z,3.50
2022-12-15T19:23:28.906Z,3.50
2022-12-15T19:25:57.531Z,3.60
2022-12-15T19:28:25.800Z,3.60
2022-12-15T19:30:54.006Z,3.70
2022-12-15T19:33:24.150Z,3.70
2022-12-15T19:35:54.818Z,3.80
2022-12-15T19:38:25.302Z,3.80
2022-12-15T19:40:56.501Z,3.80
2022-12-15T19:43:25.812Z,3.80
2022-12-15T19:45:54.290Z,3.90
2022-12-15T19:48:24.496Z,3.90
2022-12-15T19:50:54.746Z,3.90
2022-12-15T19:53:25.643Z,3.90
2022-12-15T19:55:55.051Z,3.90
2022-12-15T19:58:28.501Z,3.90
2022-12-15T20:00:58.058Z,4.00
2022-12-15T20:03:28.105Z,4.00
2022-12-15T20:05:57.359Z,4.00
2022-12-15T20:08:26.807Z,4.00
2022-12-15T20:10:55.032Z,4.00
2022-12-15T20:13:23.479Z,4.00
2022-12-15T20:15:51.713Z,4.00
2022-12-15T20:18:20.062Z,4.00
2022-12-15T20:20:49.625Z,4.00
2022-12-15T20:23:19.815Z,4.00
2022-12-15T20:25:48.102Z,4.00
2022-12-15T20:28:19.820Z,4.00
2022-12-15T20:30:48.319Z,4.00
2022-12-15T20:33:16.700Z,3.90
2022-12-15T20:35:46.073Z,3.90
2022-12-15T20:38:29.894Z,3.90
2022-12-15T20:40:58.624Z,3.90
2022-12-15T20:43:27.518Z,3.80
2022-12-15T20:46:05.685Z,3.80
2022-12-15T20:48:34.792Z,3.80
2022-12-15T20:51:07.428Z,3.70
2022-12-15T20:53:38.829Z,3.70
2022-12-15T20:56:07.631Z,3.60
2022-12-15T20:58:41.694Z,3.50
2022-12-15T21:01:19.619Z,3.40
2022-12-15T21:04:19.546Z,3.30
2022-12-15T21:07:10.890Z,3.20
2022-12-15T21:10:00.683Z,3.10
2022-12-15T21:12:50.252Z,3.00
2022-12-15T21:15:38.662Z,2.90
2022-12-15T21:19:03.904Z,2.80
2022-12-15T21:21:37.219Z,2.80
2022-12-15T21:24:26.986Z,2.80
2022-12-15T21:27:16.774Z,2.70
2022-12-15T21:30:15.079Z,2.70
2022-12-15T21:33:03.489Z,2.70
2022-12-15T21:35:51.956Z,2.70
2022-12-15T21:38:40.597Z,2.70
2022-12-15T21:41:29.023Z,2.70
2022-12-15T21:44:18.848Z,2.70
2022-12-15T21:47:11.385Z,2.70
2022-12-15T21:49:59.021Z,2.70
2022-12-15T21:52:47.600Z,2.80
2022-12-15T21:55:35.993Z,2.80
2022-12-15T21:58:24.898Z,2.90
2022-12-15T22:01:16.001Z,2.90
2022-12-15T22:04:05.692Z,2.80
2022-12-15T22:06:54.160Z,2.90
2022-12-15T22:09:42.576Z,2.90
2022-12-15T22:12:30.996Z,2.90
2022-12-15T22:15:20.963Z,2.80
2022-12-15T22:18:13.424Z,2.80
2022-12-15T22:21:01.839Z,2.90
2022-12-15T22:23:50.813Z,2.80
2022-12-15T22:26:39.972Z,2.80
2022-12-15T22:29:31.441Z,2.70
2022-12-15T22:32:19.892Z,2.70
2022-12-15T22:35:15.527Z,2.70
2022-12-15T22:38:03.963Z,2.70
2022-12-15T22:40:53.499Z,2.60
2022-12-15T22:43:45.658Z,2.60
2022-12-15T22:46:34.134Z,2.60
2022-12-15T22:49:25.915Z,2.60
2022-12-15T22:52:18.680Z,2.60
2022-12-15T22:55:08.170Z,2.60
2022-12-15T22:57:59.266Z,2.50
2022-12-15T23:00:47.808Z,2.50
2022-12-15T23:03:36.853Z,2.50
2022-12-15T23:06:25.744Z,2.50
2022-12-15T23:09:15.523Z,2.40
2022-12-15T23:12:03.082Z,2.40
2022-12-15T23:15:09.148Z,2.40
2022-12-15T23:17:57.598Z,2.30
2022-12-15T23:20:46.418Z,2.30
2022-12-15T23:23:35.292Z,2.30
2022-12-15T23:26:25.949Z,2.30
2022-12-15T23:29:14.646Z,2.20
2022-12-15T23:32:03.509Z,2.20
2022-12-15T23:34:51.967Z,2.20
2022-12-15T23:37:40.691Z,2.10
2022-12-15T23:40:29.144Z,2.10
2022-12-15T23:43:19.267Z,2.10
2022-12-15T23:46:07.898Z,2.10
2022-12-15T23:48:56.888Z,2.10
2022-12-15T23:51:45.318Z,2.00
2022-12-15T23:54:33.719Z,2.00
2022-12-15T23:57:22.201Z,1.90
